createdAt,value
2022-10-13T00:09:50.014Z,12.85
2022-10-13T00:19:53.122Z,13.00
2022-10-13T00:29:57.677Z,12.92
2022-10-13T00:40:00.739Z,13.18
2022-10-13T00:50:06.812Z,12.96
2022-10-13T01:00:11.584Z,12.63
2022-10-13T01:10:24.555Z,12.94
2022-10-13T01:20:42.906Z,12.83
2022-10-13T01:30:48.406Z,12.87
2022-10-13T01:40:55.416Z,12.80
2022-10-13T01:51:00.850Z,12.82
2022-10-13T02:01:11.474Z,12.74
2022-10-13T02:11:18.780Z,12.65
2022-10-13T02:21:21.918Z,12.58
2022-10-13T02:31:26.528Z,12.74
2022-10-13T02:41:29.666Z,12.76
2022-10-13T02:51:38.963Z,12.92
2022-10-13T03:01:44.584Z,13.13
2022-10-13T03:11:48.990Z,13.17
2022-10-13T03:21:52.081Z,13.13
2022-10-13T03:31:56.593Z,13.14
2022-10-13T03:41:59.668Z,12.94
2022-10-13T03:52:04.326Z,12.95
2022-10-13T04:02:07.773Z,12.89
2022-10-13T04:12:13.055Z,12.56
2022-10-13T04:22:17.575Z,12.33
2022-10-13T04:32:22.432Z,12.22
2022-10-13T04:42:25.730Z,12.24
2022-10-13T04:52:30.147Z,11.88
2022-10-13T05:02:33.267Z,11.96
2022-10-13T05:12:37.796Z,11.98
2022-10-13T05:22:40.855Z,12.07
2022-10-13T05:32:45.331Z,11.86
2022-10-13T05:42:48.511Z,12.14
2022-10-13T05:52:53.308Z,12.25
2022-10-13T06:02:58.718Z,12.42
2022-10-13T06:13:03.231Z,12.56
2022-10-13T06:23:06.411Z,12.51
2022-10-13T06:33:11.019Z,12.32
2022-10-13T06:43:14.052Z,12.52
2022-10-13T06:53:18.583Z,12.27
2022-10-13T07:03:23.115Z,12.40
2022-10-13T07:13:27.812Z,12.63
2022-10-13T07:23:31.198Z,13.56
2022-10-13T07:33:35.646Z,14.07
2022-10-13T07:43:38.965Z,13.72
2022-10-13T07:53:43.939Z,14.12
2022-10-13T08:03:50.145Z,14.55
2022-10-13T08:13:56.013Z,15.04
2022-10-13T08:23:59.080Z,15.63
2022-10-13T08:34:03.534Z,15.60
2022-10-13T08:54:33.745Z,16.89
2022-10-13T09:04:39.351Z,17.54
2022-10-13T09:14:43.868Z,17.72
2022-10-13T09:24:47.050Z,18.54
2022-10-13T09:34:51.830Z,18.93
2022-10-13T09:44:59.199Z,18.97
2022-10-13T09:55:03.697Z,19.20
2022-10-13T10:05:15.532Z,19.13
2022-10-13T10:15:22.335Z,19.12
2022-10-13T10:25:33.240Z,18.64
2022-10-13T10:35:44.264Z,19.61
2022-10-13T10:45:48.935Z,20.02
2022-10-13T10:55:55.599Z,20.65
2022-10-13T11:06:04.160Z,20.90
2022-10-13T11:26:44.455Z,21.53
2022-10-13T11:36:51.305Z,21.29
2022-10-13T11:47:03.514Z,20.95
2022-10-13T11:57:19.639Z,20.71
2022-10-13T12:07:24.965Z,21.29
2022-10-13T12:17:31.981Z,21.14
2022-10-13T12:27:45.375Z,20.20
2022-10-13T12:37:48.713Z,20.75
2022-10-13T12:47:55.018Z,20.99
2022-10-13T12:57:58.151Z,21.33
2022-10-13T13:08:03.142Z,20.41
2022-10-13T13:18:32.069Z,21.53
2022-10-13T13:28:36.559Z,21.75
2022-10-13T13:38:39.684Z,21.91
2022-10-13T13:48:44.146Z,21.65
2022-10-13T13:58:48.242Z,22.06
2022-10-13T14:08:52.650Z,21.71
2022-10-13T14:18:57.404Z,21.94
2022-10-13T14:29:01.881Z,21.77
2022-10-13T14:39:05.115Z,21.84
2022-10-13T14:49:11.342Z,21.44
2022-10-13T14:59:14.651Z,21.41
2022-10-13T15:09:21.047Z,20.93
2022-10-13T15:19:28.953Z,20.77
2022-10-13T15:29:33.446Z,20.42
2022-10-13T15:39:36.567Z,19.94
2022-10-13T15:49:41.000Z,19.48
2022-10-13T15:59:44.438Z,18.99
2022-10-13T16:09:50.159Z,18.49
2022-10-13T16:19:53.501Z,18.09
2022-10-13T16:29:57.941Z,17.61
2022-10-13T16:40:01.071Z,17.30
2022-10-13T16:50:09.300Z,16.96
2022-10-13T17:00:14.343Z,16.47
2022-10-13T17:10:19.036Z,16.11
2022-10-13T17:20:22.105Z,15.78
2022-10-13T17:30:26.642Z,15.68
2022-10-13T17:40:29.769Z,15.31
2022-10-13T17:50:36.645Z,15.03
2022-10-13T18:01:00.617Z,14.77
2022-10-13T18:11:08.700Z,14.67
2022-10-13T18:21:13.713Z,14.27
2022-10-13T18:31:19.752Z,14.07
2022-10-13T18:41:24.644Z,13.93
2022-10-13T18:51:35.733Z,13.85
2022-10-13T19:01:40.902Z,13.67
2022-10-13T19:11:45.434Z,13.61
2022-10-13T19:21:48.483Z,13.42
2022-10-13T19:31:53.074Z,12.99
2022-10-13T19:41:58.258Z,13.03
2022-10-13T19:52:02.763Z,12.70
2022-10-13T20:02:06.144Z,12.67
2022-10-13T20:12:10.621Z,12.73
2022-10-13T20:22:13.717Z,12.41
2022-10-13T20:32:18.343Z,12.23
2022-10-13T20:42:21.418Z,12.06
2022-10-13T20:52:25.974Z,12.07
2022-10-13T21:02:29.205Z,11.98
2022-10-13T21:12:33.709Z,11.90
2022-10-13T21:22:36.906Z,11.61
2022-10-13T21:32:41.387Z,11.54
2022-10-13T21:42:44.654Z,11.43
2022-10-13T21:52:49.089Z,11.54
2022-10-13T22:02:52.210Z,11.34
2022-10-13T22:12:57.947Z,11.27
2022-10-13T22:23:01.020Z,11.31
2022-10-13T22:33:05.606Z,10.74
2022-10-13T22:43:08.809Z,10.90
2022-10-13T22:53:13.236Z,10.77
2022-10-13T23:03:16.606Z,10.82
2022-10-13T23:13:21.071Z,10.78
2022-10-13T23:23:24.208Z,10.75
2022-10-13T23:33:29.174Z,10.68
2022-10-13T23:43:32.248Z,10.45
2022-10-13T23:53:37.642Z,10.40
